Pagrindinis puslapis
METAR-TAF:

METAR-TAF

Oro uostai :

Seinejokis-Ilmajoki, Suomija

platuma: 62-41-37N, ilguma: 022-49-55E, Aukštis: 91 m

Dabartinis oras

Ataskaita buvo paskelbta 27 minutes, ne 07:20 UTC
Vėjas 2 kt iš Pietryčių
Temperatūra -3°C
Drėgmė 100%
Slėgis 1006 hPa
Matomumas: 9000 m
Mažai debesys ne aukštis 2400 ft
Su prošvaistėmis ne aukštis 2900 ft

METAR: EFSI 190720Z AUTO 13002KT 9000 FEW024 BKN029 M03/M03 Q1006

Laikas: 09:47 (07:47 UTC)


TAF: trūkstamas

Orai ataskaitas ir orų prognozės (METAR, TAF).

turimą stotys yra geltonos ir raudonos taškus žemėlapyje.

Perkelti pele per norėdami pamatyti stoties vardą.

Tada spustelėkite, norėdami matyti oro stebėjimo ir prognozės.

Norėdami pakeisti žemėlapį: spustelėkite ant žalios mygtukų su juodo kryžiaus žemyn,; žalią mygtuką su brūkšneliu, jei norite nutolinti; arba žalių rodyklių gretimoms žemėlapius.


METAR-TAF: